sensor_id;sensor_type;location;lat;lon;timestamp;pressure;altitude;pressure_sealevel;temperature;humidity
56894;BME280;43392;50.078;13.704;2023-02-19T00:00:09;97038.56;;;8.07;87.49
56894;BME280;43392;50.078;13.704;2023-02-19T00:02:37;97038.56;;;8.07;87.14
56894;BME280;43392;50.078;13.704;2023-02-19T00:05:04;97027.63;;;8.03;86.10
56894;BME280;43392;50.078;13.704;2023-02-19T00:07:31;97028.13;;;8.00;85.81
56894;BME280;43392;50.078;13.704;2023-02-19T00:09:57;97025.72;;;7.98;86.10
56894;BME280;43392;50.078;13.704;2023-02-19T00:12:24;97018.75;;;7.97;86.12
56894;BME280;43392;50.078;13.704;2023-02-19T00:14:50;97022.50;;;7.96;86.11
56894;BME280;43392;50.078;13.704;2023-02-19T00:17:19;97023.06;;;7.98;86.20
56894;BME280;43392;50.078;13.704;2023-02-19T00:19:47;97009.69;;;7.98;86.06
56894;BME280;43392;50.078;13.704;2023-02-19T00:22:13;97001.94;;;7.97;86.49
56894;BME280;43392;50.078;13.704;2023-02-19T00:24:40;97002.22;;;8.00;86.08
56894;BME280;43392;50.078;13.704;2023-02-19T00:27:07;96999.84;;;7.99;85.74
56894;BME280;43392;50.078;13.704;2023-02-19T00:29:34;97005.94;;;7.99;86.28
56894;BME280;43392;50.078;13.704;2023-02-19T00:32:00;96993.16;;;8.01;86.11
56894;BME280;43392;50.078;13.704;2023-02-19T00:34:27;96989.19;;;8.04;86.08
56894;BME280;43392;50.078;13.704;2023-02-19T00:36:55;96994.25;;;8.06;85.87
56894;BME280;43392;50.078;13.704;2023-02-19T00:39:21;96987.84;;;8.07;85.69
56894;BME280;43392;50.078;13.704;2023-02-19T00:41:49;96990.50;;;8.07;85.76
56894;BME280;43392;50.078;13.704;2023-02-19T00:44:15;96996.94;;;8.06;85.84
56894;BME280;43392;50.078;13.704;2023-02-19T00:46:43;97005.75;;;8.06;86.00
56894;BME280;43392;50.078;13.704;2023-02-19T00:49:14;97005.47;;;8.08;85.96
56894;BME280;43392;50.078;13.704;2023-02-19T00:51:41;97000.13;;;8.08;85.91
56894;BME280;43392;50.078;13.704;2023-02-19T00:54:10;97003.09;;;8.11;86.09
56894;BME280;43392;50.078;13.704;2023-02-19T00:56:37;96998.00;;;8.10;86.17
56894;BME280;43392;50.078;13.704;2023-02-19T00:59:04;96993.47;;;8.10;85.81
56894;BME280;43392;50.078;13.704;2023-02-19T01:01:31;96992.16;;;8.13;85.87
56894;BME280;43392;50.078;13.704;2023-02-19T01:03:57;96981.19;;;8.14;85.75
56894;BME280;43392;50.078;13.704;2023-02-19T01:06:24;96979.34;;;8.15;85.83
56894;BME280;43392;50.078;13.704;2023-02-19T01:08:50;96981.78;;;8.16;85.71
56894;BME280;43392;50.078;13.704;2023-02-19T01:11:18;96975.34;;;8.17;85.77
56894;BME280;43392;50.078;13.704;2023-02-19T01:13:45;96970.00;;;8.17;85.81
56894;BME280;43392;50.078;13.704;2023-02-19T01:16:13;96963.31;;;8.15;86.17
56894;BME280;43392;50.078;13.704;2023-02-19T01:18:41;96948.63;;;8.12;86.14
56894;BME280;43392;50.078;13.704;2023-02-19T01:21:11;96950.47;;;8.12;86.53
56894;BME280;43392;50.078;13.704;2023-02-19T01:23:38;96944.59;;;8.10;86.31
56894;BME280;43392;50.078;13.704;2023-02-19T01:26:06;96948.34;;;8.09;86.46
56894;BME280;43392;50.078;13.704;2023-02-19T01:28:35;96949.13;;;8.09;86.59
56894;BME280;43392;50.078;13.704;2023-02-19T01:31:02;96939.75;;;8.07;86.67
56894;BME280;43392;50.078;13.704;2023-02-19T01:33:30;96938.97;;;8.06;86.59
56894;BME280;43392;50.078;13.704;2023-02-19T01:35:57;96941.13;;;8.04;86.14
56894;BME280;43392;50.078;13.704;2023-02-19T01:38:24;96942.44;;;8.07;86.50
56894;BME280;43392;50.078;13.704;2023-02-19T01:40:55;96935.22;;;8.07;86.39
56894;BME280;43392;50.078;13.704;2023-02-19T01:43:22;96939.25;;;8.10;86.50
56894;BME280;43392;50.078;13.704;2023-02-19T01:45:52;96929.91;;;8.12;86.50
56894;BME280;43392;50.078;13.704;2023-02-19T01:48:22;96916.56;;;8.12;86.45
56894;BME280;43392;50.078;13.704;2023-02-19T01:50:53;96917.66;;;8.11;86.57
56894;BME280;43392;50.078;13.704;2023-02-19T01:53:23;96907.75;;;8.12;86.55
56894;BME280;43392;50.078;13.704;2023-02-19T01:55:54;96901.34;;;8.13;86.72
56894;BME280;43392;50.078;13.704;2023-02-19T01:58:23;96897.63;;;8.14;86.59
56894;BME280;43392;50.078;13.704;2023-02-19T02:00:52;96893.88;;;8.15;86.88
56894;BME280;43392;50.078;13.704;2023-02-19T02:03:18;96883.72;;;8.17;86.88
56894;BME280;43392;50.078;13.704;2023-02-19T02:05:51;96877.06;;;8.19;86.57
56894;BME280;43392;50.078;13.704;2023-02-19T02:08:20;96875.19;;;8.20;86.84
56894;BME280;43392;50.078;13.704;2023-02-19T02:11:04;96860.22;;;8.19;86.73
56894;BME280;43392;50.078;13.704;2023-02-19T02:13:32;96858.63;;;8.18;87.07
56894;BME280;43392;50.078;13.704;2023-02-19T02:16:12;96849.00;;;8.17;87.01
56894;BME280;43392;50.078;13.704;2023-02-19T02:18:49;96841.25;;;8.15;86.58
56894;BME280;43392;50.078;13.704;2023-02-19T02:21:32;96844.75;;;8.16;86.80
56894;BME280;43392;50.078;13.704;2023-02-19T02:24:19;96830.06;;;8.13;87.07
56894;BME280;43392;50.078;13.704;2023-02-19T02:27:00;96821.50;;;8.11;87.13
56894;BME280;43392;50.078;13.704;2023-02-19T02:32:26;96821.75;;;8.10;87.27
56894;BME280;43392;50.078;13.704;2023-02-19T02:35:00;96816.69;;;8.13;87.15
56894;BME280;43392;50.078;13.704;2023-02-19T02:37:33;96811.88;;;8.10;87.02
56894;BME280;43392;50.078;13.704;2023-02-19T02:40:01;96810.81;;;8.11;87.10
56894;BME280;43392;50.078;13.704;2023-02-19T02:42:28;96811.59;;;8.12;86.94
56894;BME280;43392;50.078;13.704;2023-02-19T02:44:55;96806.53;;;8.10;87.07
56894;BME280;43392;50.078;13.704;2023-02-19T02:47:43;96810.81;;;8.11;87.01
56894;BME280;43392;50.078;13.704;2023-02-19T02:50:17;96801.72;;;8.12;86.55
56894;BME280;43392;50.078;13.704;2023-02-19T02:52:47;96801.19;;;8.15;86.50
56894;BME280;43392;50.078;13.704;2023-02-19T02:55:35;96799.34;;;8.16;86.38
56894;BME280;43392;50.078;13.704;2023-02-19T02:58:04;96787.56;;;8.17;86.22
56894;BME280;43392;50.078;13.704;2023-02-19T03:00:32;96778.50;;;8.18;86.03
56894;BME280;43392;50.078;13.704;2023-02-19T03:03:20;96761.97;;;8.21;86.26
56894;BME280;43392;50.078;13.704;2023-02-19T03:05:50;96757.16;;;8.23;85.73
56894;BME280;43392;50.078;13.704;2023-02-19T03:08:22;96747.28;;;8.23;85.67
56894;BME280;43392;50.078;13.704;2023-02-19T03:10:53;96742.72;;;8.24;85.24
56894;BME280;43392;50.078;13.704;2023-02-19T03:13:26;96747.00;;;8.20;85.08
56894;BME280;43392;50.078;13.704;2023-02-19T03:16:16;96732.59;;;8.21;85.27
56894;BME280;43392;50.078;13.704;2023-02-19T03:19:03;96734.16;;;8.22;85.28
56894;BME280;43392;50.078;13.704;2023-02-19T03:21:50;96736.84;;;8.22;84.90
56894;BME280;43392;50.078;13.704;2023-02-19T03:24:22;96738.47;;;8.23;84.93
56894;BME280;43392;50.078;13.704;2023-02-19T03:27:08;96719.47;;;8.24;85.24
56894;BME280;43392;50.078;13.704;2023-02-19T03:29:36;96714.94;;;8.25;85.06
56894;BME280;43392;50.078;13.704;2023-02-19T03:32:07;96696.25;;;8.25;84.90
56894;BME280;43392;50.078;13.704;2023-02-19T03:34:40;96726.44;;;8.25;84.93
56894;BME280;43392;50.078;13.704;2023-02-19T03:37:12;96745.69;;;8.27;84.80
56894;BME280;43392;50.078;13.704;2023-02-19T03:39:40;96741.16;;;8.28;84.56
56894;BME280;43392;50.078;13.704;2023-02-19T03:42:17;96720.59;;;8.28;84.63
56894;BME280;43392;50.078;13.704;2023-02-19T03:44:56;96719.53;;;8.29;84.72
56894;BME280;43392;50.078;13.704;2023-02-19T03:47:27;96708.56;;;8.31;84.87
56894;BME280;43392;50.078;13.704;2023-02-19T03:50:00;96719.25;;;8.31;84.62
56894;BME280;43392;50.078;13.704;2023-02-19T03:52:36;96709.63;;;8.30;84.56
56894;BME280;43392;50.078;13.704;2023-02-19T03:55:07;96733.69;;;8.30;84.31
56894;BME280;43392;50.078;13.704;2023-02-19T03:57:42;96724.84;;;8.29;84.40
56894;BME280;43392;50.078;13.704;2023-02-19T04:00:15;96741.69;;;8.30;84.40
56894;BME280;43392;50.078;13.704;2023-02-19T04:02:46;96731.81;;;8.30;84.33
56894;BME280;43392;50.078;13.704;2023-02-19T04:05:18;96719.53;;;8.29;84.22
56894;BME280;43392;50.078;13.704;2023-02-19T04:07:49;96728.88;;;8.32;83.85
56894;BME280;43392;50.078;13.704;2023-02-19T04:10:18;96727.81;;;8.33;83.93
56894;BME280;43392;50.078;13.704;2023-02-19T04:12:50;96724.84;;;8.29;83.53
56894;BME280;43392;50.078;13.704;2023-02-19T04:15:21;96717.66;;;8.30;84.08
56894;BME280;43392;50.078;13.704;2023-02-19T04:17:53;96720.84;;;8.32;83.58
56894;BME280;43392;50.078;13.704;2023-02-19T04:20:23;96722.72;;;8.31;83.46
56894;BME280;43392;50.078;13.704;2023-02-19T04:22:53;96719.25;;;8.31;83.49
56894;BME280;43392;50.078;13.704;2023-02-19T04:25:22;96716.03;;;8.34;83.47
56894;BME280;43392;50.078;13.704;2023-02-19T04:27:49;96718.19;;;8.37;83.36
56894;BME280;43392;50.078;13.704;2023-02-19T04:30:16;96721.91;;;8.36;82.92
56894;BME280;43392;50.078;13.704;2023-02-19T04:32:42;96715.00;;;8.35;82.79
56894;BME280;43392;50.078;13.704;2023-02-19T04:35:09;96704.81;;;8.27;83.21
56894;BME280;43392;50.078;13.704;2023-02-19T04:37:37;96713.13;;;8.35;83.20
56894;BME280;43392;50.078;13.704;2023-02-19T04:40:04;96716.84;;;8.34;83.13
56894;BME280;43392;50.078;13.704;2023-02-19T04:42:31;96721.38;;;8.34;83.28
56894;BME280;43392;50.078;13.704;2023-02-19T04:44:57;96717.91;;;8.33;83.38
56894;BME280;43392;50.078;13.704;2023-02-19T04:47:24;96712.31;;;8.35;83.16
56894;BME280;43392;50.078;13.704;2023-02-19T04:49:50;96721.13;;;8.35;83.32
56894;BME280;43392;50.078;13.704;2023-02-19T04:52:17;96710.69;;;8.34;83.75
56894;BME280;43392;50.078;13.704;2023-02-19T04:54:45;96702.69;;;8.34;83.75
56894;BME280;43392;50.078;13.704;2023-02-19T04:57:11;96706.97;;;8.35;83.79
56894;BME280;43392;50.078;13.704;2023-02-19T04:59:38;96706.97;;;8.35;83.54
56894;BME280;43392;50.078;13.704;2023-02-19T05:02:04;96717.13;;;8.38;83.31
56894;BME280;43392;50.078;13.704;2023-02-19T05:04:31;96721.91;;;8.36;83.18
56894;BME280;43392;50.078;13.704;2023-02-19T05:06:58;96709.13;;;8.33;83.09
56894;BME280;43392;50.078;13.704;2023-02-19T05:09:24;96719.25;;;8.31;83.46
56894;BME280;43392;50.078;13.704;2023-02-19T05:11:52;96714.97;;;8.30;82.84
56894;BME280;43392;50.078;13.704;2023-02-19T05:14:19;96713.91;;;8.31;83.18
56894;BME280;43392;50.078;13.704;2023-02-19T05:16:45;96713.38;;;8.34;82.39
56894;BME280;43392;50.078;13.704;2023-02-19T05:19:12;96710.47;;;8.35;82.34
56894;BME280;43392;50.078;13.704;2023-02-19T05:21:39;96706.69;;;8.36;82.78
56894;BME280;43392;50.078;13.704;2023-02-19T05:24:05;96705.63;;;8.37;82.33
56894;BME280;43392;50.078;13.704;2023-02-19T05:26:32;96705.63;;;8.37;82.39
56894;BME280;43392;50.078;13.704;2023-02-19T05:29:00;96704.31;;;8.35;82.28
56894;BME280;43392;50.078;13.704;2023-02-19T05:31:27;96706.16;;;8.34;82.46
56894;BME280;43392;50.078;13.704;2023-02-19T05:33:54;96704.03;;;8.36;82.31
56894;BME280;43392;50.078;13.704;2023-02-19T05:36:21;96695.19;;;8.36;82.36
56894;BME280;43392;50.078;13.704;2023-02-19T05:38:51;96697.88;;;8.36;82.47
56894;BME280;43392;50.078;13.704;2023-02-19T05:41:21;96701.34;;;8.36;82.43
56894;BME280;43392;50.078;13.704;2023-02-19T05:43:48;96701.88;;;8.38;82.26
56894;BME280;43392;50.078;13.704;2023-02-19T05:46:18;96709.38;;;8.36;82.29
56894;BME280;43392;50.078;13.704;2023-02-19T05:48:46;96705.34;;;8.34;82.39
56894;BME280;43392;50.078;13.704;2023-02-19T05:51:15;96716.03;;;8.29;82.65
56894;BME280;43392;50.078;13.704;2023-02-19T05:53:43;96706.97;;;8.30;82.57
56894;BME280;43392;50.078;13.704;2023-02-19T05:56:23;96719.25;;;8.31;82.72
56894;BME280;43392;50.078;13.704;2023-02-19T05:58:53;96717.38;;;8.31;82.70
56894;BME280;43392;50.078;13.704;2023-02-19T06:01:22;96717.66;;;8.35;82.26
56894;BME280;43392;50.078;13.704;2023-02-19T06:03:50;96716.56;;;8.36;82.41
56894;BME280;43392;50.078;13.704;2023-02-19T06:06:17;96714.72;;;8.36;82.32
56894;BME280;43392;50.078;13.704;2023-02-19T06:08:44;96658.31;;;8.02;81.84
56894;BME280;43392;50.078;13.704;2023-02-19T06:11:11;96702.16;;;8.37;81.95
56894;BME280;43392;50.078;13.704;2023-02-19T06:13:37;96707.50;;;8.37;82.24
56894;BME280;43392;50.078;13.704;2023-02-19T06:16:05;96702.16;;;8.37;82.11
56894;BME280;43392;50.078;13.704;2023-02-19T06:18:33;96716.03;;;8.39;81.55
56894;BME280;43392;50.078;13.704;2023-02-19T06:21:00;96703.22;;;8.41;81.78
56894;BME280;43392;50.078;13.704;2023-02-19T06:23:27;96709.66;;;8.40;81.74
56894;BME280;43392;50.078;13.704;2023-02-19T06:25:53;96695.19;;;8.36;81.95
56894;BME280;43392;50.078;13.704;2023-02-19T06:28:20;96694.66;;;8.34;81.37
56894;BME280;43392;50.078;13.704;2023-02-19T06:30:46;96713.38;;;8.34;81.66
56894;BME280;43392;50.078;13.704;2023-02-19T06:33:13;96721.38;;;8.34;81.44
56894;BME280;43392;50.078;13.704;2023-02-19T06:35:41;96720.34;;;8.35;81.03
56894;BME280;43392;50.078;13.704;2023-02-19T06:38:07;96736.38;;;8.35;81.14
56894;BME280;43392;50.078;13.704;2023-02-19T06:40:34;96752.38;;;8.35;81.18
56894;BME280;43392;50.078;13.704;2023-02-19T06:43:00;96750.53;;;8.35;81.14
56894;BME280;43392;50.078;13.704;2023-02-19T06:45:27;96748.63;;;8.36;81.31
56894;BME280;43392;50.078;13.704;2023-02-19T06:47:54;96747.56;;;8.37;80.88
56894;BME280;43392;50.078;13.704;2023-02-19T06:50:20;96747.56;;;8.37;80.17
56894;BME280;43392;50.078;13.704;2023-02-19T06:52:48;96749.97;;;8.38;80.39
56894;BME280;43392;50.078;13.704;2023-02-19T06:55:15;96749.19;;;8.43;80.47
56894;BME280;43392;50.078;13.704;2023-02-19T06:57:41;96750.25;;;8.47;80.43
56894;BME280;43392;50.078;13.704;2023-02-19T07:00:09;96759.88;;;8.53;80.03
56894;BME280;43392;50.078;13.704;2023-02-19T07:02:36;96756.94;;;8.54;79.70
56894;BME280;43392;50.078;13.704;2023-02-19T07:05:03;96763.63;;;8.52;79.24
56894;BME280;43392;50.078;13.704;2023-02-19T07:07:29;96771.66;;;8.52;79.54
56894;BME280;43392;50.078;13.704;2023-02-19T07:09:57;96768.44;;;8.55;79.74
56894;BME280;43392;50.078;13.704;2023-02-19T07:12:24;96773.78;;;8.55;79.39
56894;BME280;43392;50.078;13.704;2023-02-19T07:14:50;96780.72;;;8.56;79.40
56894;BME280;43392;50.078;13.704;2023-02-19T07:17:17;96781.25;;;8.53;79.49
56894;BME280;43392;50.078;13.704;2023-02-19T07:19:44;96781.00;;;8.49;79.46
56894;BME280;43392;50.078;13.704;2023-02-19T07:22:10;96783.91;;;8.48;79.97
56894;BME280;43392;50.078;13.704;2023-02-19T07:24:37;96793.28;;;8.50;80.28
56894;BME280;43392;50.078;13.704;2023-02-19T07:27:05;96781.53;;;8.51;79.68
56894;BME280;43392;50.078;13.704;2023-02-19T07:29:31;96794.06;;;8.51;79.76
56894;BME280;43392;50.078;13.704;2023-02-19T07:31:58;96791.94;;;8.53;79.95
56894;BME280;43392;50.078;13.704;2023-02-19T07:34:24;96791.69;;;8.59;79.69
56894;BME280;43392;50.078;13.704;2023-02-19T07:36:51;96794.63;;;8.63;79.40
56894;BME280;43392;50.078;13.704;2023-02-19T07:39:18;96800.25;;;8.61;79.39
56894;BME280;43392;50.078;13.704;2023-02-19T07:41:44;96802.09;;;8.61;79.55
56894;BME280;43392;50.078;13.704;2023-02-19T07:44:12;96802.91;;;8.61;79.72
56894;BME280;43392;50.078;13.704;2023-02-19T07:46:41;96805.06;;;8.64;79.82
56894;BME280;43392;50.078;13.704;2023-02-19T07:49:07;96803.72;;;8.67;79.58
56894;BME280;43392;50.078;13.704;2023-02-19T07:51:34;96817.09;;;8.67;80.02
56894;BME280;43392;50.078;13.704;2023-02-19T07:54:01;96809.06;;;8.67;80.65
56894;BME280;43392;50.078;13.704;2023-02-19T07:56:27;96822.44;;;8.82;80.03
56894;BME280;43392;50.078;13.704;2023-02-19T07:58:54;96828.84;;;8.71;80.62
56894;BME280;43392;50.078;13.704;2023-02-19T08:01:22;96838.19;;;8.58;82.29
56894;BME280;43392;50.078;13.704;2023-02-19T08:04:11;96848.03;;;8.48;83.99
56894;BME280;43392;50.078;13.704;2023-02-19T08:06:37;96832.56;;;8.40;84.08
56894;BME280;43392;50.078;13.704;2023-02-19T08:09:04;96829.03;;;8.29;86.27
56894;BME280;43392;50.078;13.704;2023-02-19T08:11:31;96850.13;;;8.26;86.79
56894;BME280;43392;50.078;13.704;2023-02-19T08:14:15;96863.47;;;8.21;86.33
56894;BME280;43392;50.078;13.704;2023-02-19T08:16:48;96870.91;;;8.19;87.70
56894;BME280;43392;50.078;13.704;2023-02-19T08:19:15;96875.66;;;8.07;88.12
56894;BME280;43392;50.078;13.704;2023-02-19T08:21:42;96889.03;;;8.01;88.95
56894;BME280;43392;50.078;13.704;2023-02-19T08:24:08;96884.75;;;8.00;89.33
56894;BME280;43392;50.078;13.704;2023-02-19T08:26:36;96880.97;;;7.91;89.63
56894;BME280;43392;50.078;13.704;2023-02-19T08:29:03;96878.22;;;7.76;90.52
56894;BME280;43392;50.078;13.704;2023-02-19T08:31:29;96882.47;;;7.72;91.65
56894;BME280;43392;50.078;13.704;2023-02-19T08:33:57;96883.50;;;7.66;91.47
56894;BME280;43392;50.078;13.704;2023-02-19T08:36:24;96875.47;;;7.61;92.63
56894;BME280;43392;50.078;13.704;2023-02-19T08:38:51;96881.59;;;7.62;92.17
56894;BME280;43392;50.078;13.704;2023-02-19T08:41:17;96878.13;;;7.61;92.62
56894;BME280;43392;50.078;13.704;2023-02-19T08:43:44;96880.56;;;7.63;92.94
56894;BME280;43392;50.078;13.704;2023-02-19T08:46:11;96881.13;;;7.70;92.92
56894;BME280;43392;50.078;13.704;2023-02-19T08:48:38;96880.88;;;7.76;92.61
56894;BME280;43392;50.078;13.704;2023-02-19T08:51:08;96875.34;;;7.88;92.66
56894;BME280;43392;50.078;13.704;2023-02-19T08:53:36;96871.38;;;7.95;91.95
56894;BME280;43392;50.078;13.704;2023-02-19T08:56:04;96880.44;;;7.89;91.13
56894;BME280;43392;50.078;13.704;2023-02-19T08:58:31;96869.41;;;7.76;90.87
56894;BME280;43392;50.078;13.704;2023-02-19T09:00:58;96878.50;;;7.80;91.27
56894;BME280;43392;50.078;13.704;2023-02-19T09:03:24;96873.44;;;7.83;91.35
56894;BME280;43392;50.078;13.704;2023-02-19T09:05:51;96869.75;;;7.94;91.50
56894;BME280;43392;50.078;13.704;2023-02-19T09:08:19;96880.16;;;7.91;89.95
56894;BME280;43392;50.078;13.704;2023-02-19T09:10:56;96898.00;;;7.85;90.21
56894;BME280;43392;50.078;13.704;2023-02-19T09:13:22;96903.03;;;7.72;89.46
56894;BME280;43392;50.078;13.704;2023-02-19T09:15:49;96904.88;;;7.71;90.01
56894;BME280;43392;50.078;13.704;2023-02-19T09:18:16;96897.69;;;7.72;90.06
56894;BME280;43392;50.078;13.704;2023-02-19T09:20:42;96903.81;;;7.72;88.24
56894;BME280;43392;50.078;13.704;2023-02-19T09:23:09;96908.59;;;7.70;87.64
56894;BME280;43392;50.078;13.704;2023-02-19T09:25:37;96916.59;;;7.70;87.23
56894;BME280;43392;50.078;13.704;2023-02-19T09:28:03;96915.56;;;7.71;87.03
56894;BME280;43392;50.078;13.704;2023-02-19T09:30:30;96903.28;;;7.75;87.58
56894;BME280;43392;50.078;13.704;2023-02-19T09:32:56;96912.69;;;7.83;87.82
56894;BME280;43392;50.078;13.704;2023-02-19T09:35:23;96909.78;;;7.89;87.44
56894;BME280;43392;50.078;13.704;2023-02-19T09:37:50;96911.94;;;7.97;87.83
56894;BME280;43392;50.078;13.704;2023-02-19T09:40:16;96920.28;;;8.06;87.66
56894;BME280;43392;50.078;13.704;2023-02-19T09:42:48;96917.66;;;8.11;87.97
56894;BME280;43392;50.078;13.704;2023-02-19T09:45:21;96913.41;;;8.20;88.13
56894;BME280;43392;50.078;13.704;2023-02-19T09:47:52;96928.09;;;8.23;88.08
56894;BME280;43392;50.078;13.704;2023-02-19T09:50:21;96928.44;;;8.31;88.41
56894;BME280;43392;50.078;13.704;2023-02-19T09:52:50;96933.78;;;8.31;88.01
56894;BME280;43392;50.078;13.704;2023-02-19T09:55:25;96930.84;;;8.33;89.07
56894;BME280;43392;50.078;13.704;2023-02-19T09:57:57;96924.44;;;8.34;89.13
56894;BME280;43392;50.078;13.704;2023-02-19T10:00:25;96922.06;;;8.37;88.74
56894;BME280;43392;50.078;13.704;2023-02-19T10:02:54;96939.44;;;8.40;85.37
56894;BME280;43392;50.078;13.704;2023-02-19T10:05:25;96929.00;;;8.43;84.87
56894;BME280;43392;50.078;13.704;2023-02-19T10:07:54;96944.28;;;8.58;84.23
56894;BME280;43392;50.078;13.704;2023-02-19T10:10:29;96935.78;;;8.71;83.51
56894;BME280;43392;50.078;13.704;2023-02-19T10:13:10;96940.88;;;8.83;83.14
56894;BME280;43392;50.078;13.704;2023-02-19T10:15:44;96950.78;;;8.92;83.41
56894;BME280;43392;50.078;13.704;2023-02-19T10:18:15;96959.09;;;8.91;82.05
56894;BME280;43392;50.078;13.704;2023-02-19T10:20:42;96954.56;;;8.91;81.86
56894;BME280;43392;50.078;13.704;2023-02-19T10:23:10;96960.69;;;8.92;82.91
56894;BME280;43392;50.078;13.704;2023-02-19T10:25:41;96964.97;;;8.88;82.09
56894;BME280;43392;50.078;13.704;2023-02-19T10:28:14;96975.91;;;8.81;81.40
56894;BME280;43392;50.078;13.704;2023-02-19T10:30:42;96971.63;;;8.80;81.74
56894;BME280;43392;50.078;13.704;2023-02-19T10:33:10;96970.56;;;8.76;81.99
56894;BME280;43392;50.078;13.704;2023-02-19T10:35:51;96967.06;;;8.76;81.99
56894;BME280;43392;50.078;13.704;2023-02-19T10:38:19;96978.56;;;8.76;82.85
56894;BME280;43392;50.078;13.704;2023-02-19T10:40:52;96980.13;;;8.72;82.21
56894;BME280;43392;50.078;13.704;2023-02-19T10:43:26;96986.03;;;8.69;82.07
56894;BME280;43392;50.078;13.704;2023-02-19T10:45:58;97001.25;;;8.68;82.67
56894;BME280;43392;50.078;13.704;2023-02-19T10:48:29;96997.25;;;8.71;81.85
56894;BME280;43392;50.078;13.704;2023-02-19T10:50:59;97008.19;;;8.69;81.90
56894;BME280;43392;50.078;13.704;2023-02-19T10:53:39;96987.09;;;8.68;82.77
56894;BME280;43392;50.078;13.704;2023-02-19T10:56:08;96999.91;;;8.66;83.41
56894;BME280;43392;50.078;13.704;2023-02-19T10:58:36;97013.25;;;8.61;83.12
56894;BME280;43392;50.078;13.704;2023-02-19T11:01:25;97011.06;;;8.53;84.69
56894;BME280;43392;50.078;13.704;2023-02-19T11:04:13;97019.63;;;8.50;85.30
56894;BME280;43392;50.078;13.704;2023-02-19T11:06:40;97024.97;;;8.45;85.98
56894;BME280;43392;50.078;13.704;2023-02-19T11:09:23;97029.91;;;8.26;87.08
56894;BME280;43392;50.078;13.704;2023-02-19T11:11:53;97031.63;;;8.06;88.49
56894;BME280;43392;50.078;13.704;2023-02-19T11:14:23;97047.28;;;7.87;91.12
56894;BME280;43392;50.078;13.704;2023-02-19T11:16:51;97071.38;;;7.65;89.12
56894;BME280;43392;50.078;13.704;2023-02-19T11:19:26;97073.06;;;7.45;88.01
56894;BME280;43392;50.078;13.704;2023-02-19T11:21:54;97086.53;;;7.33;87.79
56894;BME280;43392;50.078;13.704;2023-02-19T11:24:25;97094.97;;;7.25;86.78
56894;BME280;43392;50.078;13.704;2023-02-19T11:26:54;97106.84;;;7.12;87.41
56894;BME280;43392;50.078;13.704;2023-02-19T11:29:23;97119.06;;;7.08;88.16
56894;BME280;43392;50.078;13.704;2023-02-19T11:31:53;97119.88;;;7.09;88.32
56894;BME280;43392;50.078;13.704;2023-02-19T11:34:28;97139.53;;;7.03;89.06
56894;BME280;43392;50.078;13.704;2023-02-19T11:37:09;97135.44;;;6.95;88.72
56894;BME280;43392;50.078;13.704;2023-02-19T11:39:36;97137.47;;;6.88;89.04
56894;BME280;43392;50.078;13.704;2023-02-19T11:42:29;97146.78;;;7.07;88.37
56894;BME280;43392;50.078;13.704;2023-02-19T11:45:11;97142.44;;;7.01;87.26
56894;BME280;43392;50.078;13.704;2023-02-19T11:47:52;97150.88;;;6.93;88.11
56894;BME280;43392;50.078;13.704;2023-02-19T11:50:26;97152.28;;;6.79;86.53
56894;BME280;43392;50.078;13.704;2023-02-19T11:53:04;97153.06;;;6.58;87.72
56894;BME280;43392;50.078;13.704;2023-02-19T11:55:48;97154.53;;;6.49;88.95
56894;BME280;43392;50.078;13.704;2023-02-19T11:58:34;97162.94;;;6.41;88.82
56894;BME280;43392;50.078;13.704;2023-02-19T12:01:14;97165.63;;;6.24;87.88
56894;BME280;43392;50.078;13.704;2023-02-19T12:03:58;97184.88;;;5.98;86.40
56894;BME280;43392;50.078;13.704;2023-02-19T12:06:32;97169.69;;;5.98;88.04
56894;BME280;43392;50.078;13.704;2023-02-19T12:09:19;97178.66;;;5.92;86.64
56894;BME280;43392;50.078;13.704;2023-02-19T12:11:55;97182.06;;;5.88;87.45
56894;BME280;43392;50.078;13.704;2023-02-19T12:14:44;97185.47;;;6.00;87.48
56894;BME280;43392;50.078;13.704;2023-02-19T12:17:24;97190.78;;;6.00;87.38
56894;BME280;43392;50.078;13.704;2023-02-19T12:20:09;97186.84;;;6.03;87.06
56894;BME280;43392;50.078;13.704;2023-02-19T12:22:44;97193.44;;;6.00;87.68
56894;BME280;43392;50.078;13.704;2023-02-19T12:25:43;97189.00;;;6.06;86.89
56894;BME280;43392;50.078;13.704;2023-02-19T12:28:40;97194.09;;;6.07;86.38
56894;BME280;43392;50.078;13.704;2023-02-19T12:31:20;97195.47;;;6.10;85.87
56894;BME280;43392;50.078;13.704;2023-02-19T12:34:23;97198.44;;;6.13;85.99
56894;BME280;43392;50.078;13.704;2023-02-19T12:37:04;97205.63;;;6.13;84.54
56894;BME280;43392;50.078;13.704;2023-02-19T12:39:41;97203.66;;;6.08;82.91
56894;BME280;43392;50.078;13.704;2023-02-19T12:42:22;97204.66;;;6.02;83.12
56894;BME280;43392;50.078;13.704;2023-02-19T12:44:54;97216.59;;;6.16;83.58
56894;BME280;43392;50.078;13.704;2023-02-19T12:47:26;97209.59;;;6.27;83.82
56894;BME280;43392;50.078;13.704;2023-02-19T12:50:01;97207.66;;;6.39;83.47
56894;BME280;43392;50.078;13.704;2023-02-19T12:52:33;97209.50;;;6.55;82.91
56894;BME280;43392;50.078;13.704;2023-02-19T12:55:20;97219.19;;;6.61;82.28
56894;BME280;43392;50.078;13.704;2023-02-19T12:57:49;97207.25;;;6.63;82.79
56894;BME280;43392;50.078;13.704;2023-02-19T13:00:27;97209.09;;;6.63;82.55
56894;BME280;43392;50.078;13.704;2023-02-19T13:02:59;97217.50;;;6.55;80.29
56894;BME280;43392;50.078;13.704;2023-02-19T13:05:37;97209.03;;;6.41;81.12
56894;BME280;43392;50.078;13.704;2023-02-19T13:08:17;97222.19;;;6.31;80.47
56894;BME280;43392;50.078;13.704;2023-02-19T13:10:47;97221.38;;;6.31;80.12
56894;BME280;43392;50.078;13.704;2023-02-19T13:13:19;97229.09;;;6.32;79.99
56894;BME280;43392;50.078;13.704;2023-02-19T13:15:50;97229.09;;;6.32;80.32
56894;BME280;43392;50.078;13.704;2023-02-19T13:18:19;97225.78;;;6.25;81.19
56894;BME280;43392;50.078;13.704;2023-02-19T13:20:50;97243.66;;;6.25;81.13